General WM J Fox Airfield
KWJF : now visible

Airfield :











YOU CAN JOIN US ON...

 
LOGIN :

Register | Disclaimer

   EN    FR    IT 

 









Legend :    VFR   Marginal VFR   IFR   Intensive IFR   Very Intensive IFR
Visi :
Ceiling :
>= 8 km
>= 3000ft
5 to 8 km
1000 to 3000 ft
1500m to 5 km
500 to 1000 ft
800 to 1500m
200 to 500 ft
< 800m
< 200 ft
Symbols :   Thunderstorms  Fog  Heavy snow  Heavy precipitations  Wind > 20 kt






- Airport Elevation : 2351 ft


KWJF - General WM J Fox

CURRENT METAR :
  • 150956Z AUTO 25020KT 10SM FEW040 07/02 A2994 RMK AO2 PK WND 24029/0926 SLP139 T00670017

EXPIRED METARs :
  • 150856Z AUTO 25015KT 10SM SCT044 07/02 A2994 RMK AO2 SLP137 T00720022 58003
  • 150756Z AUTO 27014KT 10SM CLR 07/02 A2994 RMK AO2 SLP140 T00670017 401610067
  • 150656Z AUTO 23011KT 10SM CLR 07/02 A2996 RMK AO2 SLP146 T00720022

TAF KWJF
Valid from the 15 at 10:00 until the 16 at 06:00 UTC


150930Z 1510/1606 25015KT P6SM SCT050
FM152200 30015G25KT P6SM SKC
FM160200 32010KT P6SM SKC



MET'MAP, your aeronautical weather chart ! - Copyright ORBIFLY December 2007 - Disclaimer

ORBIFLY MET'MAP TEAM :

Programming & Development : Alexandra Zaïnal
Concept & original design : Baudouin d'Aumeries
Assistance for programming : Marc-Olivier Méhu
Technical & hardware support : Manuel Goepfert

Contact : metmap@orbifly.com




SOURCES & CREDITS :

   NOAA       Earth
Advisory